createdAt,value
2023-03-08T00:04:35.338Z,82.23
2023-03-08T00:09:38.920Z,82.72
2023-03-08T00:14:41.669Z,82.70
2023-03-08T00:19:44.880Z,83.87
2023-03-08T00:24:47.817Z,83.68
2023-03-08T00:29:50.453Z,84.03
2023-03-08T00:34:53.654Z,84.48
2023-03-08T00:39:56.428Z,84.20
2023-03-08T00:44:59.055Z,84.69
2023-03-08T00:50:01.682Z,84.92
2023-03-08T00:55:04.551Z,85.34
2023-03-08T01:00:11.276Z,85.86
2023-03-08T01:05:14.248Z,86.98
2023-03-08T01:10:17.316Z,87.23
2023-03-08T01:15:20.055Z,86.65
2023-03-08T01:20:22.763Z,86.62
2023-03-08T01:25:25.693Z,86.92
2023-03-08T01:30:28.560Z,87.76
2023-03-08T01:35:31.244Z,87.59
2023-03-08T01:40:33.963Z,88.39
2023-03-08T01:46:06.453Z,89.26
2023-03-08T01:51:13.640Z,89.08
2023-03-08T01:56:18.209Z,89.58
2023-03-08T02:01:21.519Z,89.60
2023-03-08T02:06:26.373Z,88.96
2023-03-08T02:11:29.320Z,89.00
2023-03-08T02:16:33.286Z,89.81
2023-03-08T02:21:36.623Z,89.94
2023-03-08T02:26:39.303Z,89.42
2023-03-08T02:31:42.077Z,89.86
2023-03-08T02:36:44.704Z,90.19
2023-03-08T02:41:47.710Z,89.69
2023-03-08T02:46:53.024Z,90.30
2023-03-08T02:51:55.760Z,90.24
2023-03-08T02:56:58.581Z,90.24
2023-03-08T03:02:01.388Z,90.37
2023-03-08T03:07:04.403Z,90.05
2023-03-08T03:12:08.951Z,89.88
2023-03-08T03:17:14.968Z,90.04
2023-03-08T03:22:17.935Z,90.35
2023-03-08T03:27:21.049Z,90.89
2023-03-08T03:32:24.205Z,90.88
2023-03-08T03:37:27.107Z,90.51
2023-03-08T03:42:32.087Z,89.80
2023-03-08T03:47:43.778Z,89.88
2023-03-08T03:52:47.213Z,89.39
2023-03-08T03:57:51.120Z,89.92
2023-03-08T04:03:03.542Z,90.16
2023-03-08T04:08:10.422Z,91.17
2023-03-08T04:13:18.136Z,90.86
2023-03-08T04:18:21.342Z,89.37
2023-03-08T04:23:24.123Z,88.36
2023-03-08T04:28:27.409Z,88.33
2023-03-08T04:33:30.307Z,87.96
2023-03-08T04:38:36.682Z,88.07
2023-03-08T04:43:48.723Z,88.82
2023-03-08T04:48:56.126Z,89.03
2023-03-08T04:54:02.103Z,88.70
2023-03-08T04:59:05.046Z,88.91
2023-03-08T05:04:09.463Z,88.04
2023-03-08T05:09:16.365Z,88.21
2023-03-08T05:14:22.124Z,88.39
2023-03-08T05:19:25.883Z,87.71
2023-03-08T05:24:30.252Z,86.81
2023-03-08T05:29:37.561Z,87.27
2023-03-08T05:34:42.699Z,88.29
2023-03-08T05:39:53.208Z,88.62
2023-03-08T05:44:58.198Z,88.48
2023-03-08T05:50:06.373Z,88.06
2023-03-08T05:55:12.358Z,89.87
2023-03-08T06:00:16.206Z,90.02
2023-03-08T06:05:18.747Z,90.28
2023-03-08T06:10:23.127Z,91.40
2023-03-08T06:15:27.089Z,91.95
2023-03-08T06:20:31.604Z,91.81
2023-03-08T06:25:41.813Z,92.71
2023-03-08T06:30:46.888Z,94.56
2023-03-08T06:36:21.551Z,94.47
2023-03-08T06:41:25.997Z,94.82
2023-03-08T06:46:35.727Z,95.53
2023-03-08T06:51:38.600Z,96.11
2023-03-08T06:56:41.546Z,96.88
2023-03-08T07:01:45.598Z,97.12
2023-03-08T07:06:52.769Z,96.56
2023-03-08T07:11:55.757Z,98.18
2023-03-08T07:16:58.524Z,99.09
2023-03-08T07:22:01.282Z,99.83
2023-03-08T07:27:04.331Z,98.89
2023-03-08T07:32:07.730Z,96.84
2023-03-08T07:37:14.913Z,95.95
2023-03-08T07:42:17.852Z,94.66
2023-03-08T07:47:26.093Z,94.33
2023-03-08T07:52:29.982Z,94.58
2023-03-08T07:57:32.586Z,93.51
2023-03-08T08:02:36.316Z,92.93
2023-03-08T08:07:39.166Z,93.09
2023-03-08T08:12:41.820Z,92.38
2023-03-08T08:17:44.579Z,93.30
2023-03-08T08:22:47.352Z,93.91
2023-03-08T08:27:51.231Z,93.93
2023-03-08T08:32:53.991Z,93.45
2023-03-08T08:37:56.629Z,94.60
2023-03-08T08:42:59.371Z,95.51
2023-03-08T08:48:02.019Z,96.30
2023-03-08T08:53:08.101Z,96.16
2023-03-08T08:58:14.408Z,96.29
2023-03-08T09:03:17.163Z,97.72
2023-03-08T09:08:19.844Z,98.16
2023-03-08T09:13:22.553Z,98.68
2023-03-08T09:18:28.243Z,99.13
2023-03-08T09:23:30.980Z,98.93
2023-03-08T09:28:34.336Z,98.43
2023-03-08T09:33:37.248Z,97.78
2023-03-08T09:38:40.161Z,97.93
2023-03-08T09:43:49.061Z,98.55
2023-03-08T09:48:53.281Z,98.27
2023-03-08T09:54:00.250Z,97.30
2023-03-08T09:59:12.307Z,97.48
2023-03-08T10:04:46.466Z,97.36
2023-03-08T10:10:27.547Z,97.63
2023-03-08T10:15:32.360Z,97.77
2023-03-08T10:20:37.738Z,98.32
2023-03-08T10:25:40.753Z,98.42
2023-03-08T10:30:48.516Z,98.51
2023-03-08T10:36:13.038Z,98.96
2023-03-08T10:41:17.583Z,98.82
2023-03-08T10:46:25.519Z,99.29
2023-03-08T10:51:29.950Z,98.90
2023-03-08T10:56:52.222Z,99.16
2023-03-08T11:01:59.462Z,99.23
2023-03-08T11:07:11.893Z,99.14
2023-03-08T11:12:32.607Z,99.45
2023-03-08T11:17:46.691Z,99.87
2023-03-08T11:23:15.391Z,99.60
2023-03-08T11:28:59.620Z,100.00
2023-03-08T11:34:40.548Z,100.00
2023-03-08T11:40:19.111Z,99.71
2023-03-08T11:45:34.136Z,99.60
2023-03-08T11:50:39.654Z,99.76
2023-03-08T11:55:55.485Z,99.37
2023-03-08T12:01:02.830Z,98.88
2023-03-08T12:06:26.716Z,99.42
2023-03-08T12:11:41.936Z,99.55
2023-03-08T12:16:56.335Z,99.93
2023-03-08T12:22:05.081Z,99.72
2023-03-08T12:27:18.902Z,99.66
2023-03-08T12:32:22.493Z,100.00
2023-03-08T12:37:28.089Z,100.00
2023-03-08T12:42:33.041Z,100.00
2023-03-08T12:47:35.885Z,100.00
2023-03-08T12:52:38.900Z,100.00
2023-03-08T12:57:48.881Z,100.00
2023-03-08T13:03:14.658Z,100.00
2023-03-08T13:08:19.201Z,100.00
2023-03-08T13:14:02.402Z,100.00
2023-03-08T13:19:27.002Z,100.00
2023-03-08T13:24:54.069Z,100.00
2023-03-08T13:30:13.129Z,100.00
2023-03-08T13:35:17.193Z,100.00
2023-03-08T13:40:21.424Z,100.00
2023-03-08T13:45:24.575Z,100.00
2023-03-08T13:50:33.030Z,100.00
2023-03-08T13:55:39.841Z,100.00
2023-03-08T14:00:42.792Z,100.00
2023-03-08T14:05:47.948Z,100.00
2023-03-08T14:10:59.889Z,100.00
2023-03-08T14:16:35.983Z,100.00
2023-03-08T14:22:03.097Z,100.00
2023-03-08T14:27:17.775Z,100.00
2023-03-08T14:32:32.050Z,100.00
2023-03-08T14:37:36.139Z,100.00
2023-03-08T14:42:55.268Z,100.00
2023-03-08T14:48:01.288Z,100.00
2023-03-08T14:53:04.761Z,100.00
2023-03-08T14:58:15.041Z,100.00
2023-03-08T15:03:17.694Z,100.00
2023-03-08T15:08:21.343Z,100.00
2023-03-08T15:13:25.145Z,100.00
2023-03-08T15:18:27.966Z,100.00
2023-03-08T15:23:33.337Z,100.00
2023-03-08T15:28:35.982Z,100.00
2023-03-08T15:33:38.682Z,100.00
2023-03-08T15:38:41.614Z,100.00
2023-03-08T15:43:44.675Z,100.00
2023-03-08T15:48:47.344Z,100.00
2023-03-08T15:53:50.383Z,100.00
2023-03-08T15:58:54.157Z,100.00
2023-03-08T16:03:57.425Z,100.00
2023-03-08T16:09:00.189Z,100.00
2023-03-08T16:14:02.892Z,100.00
2023-03-08T16:19:05.641Z,100.00
2023-03-08T16:24:09.208Z,100.00
2023-03-08T16:29:11.905Z,100.00
2023-03-08T16:34:22.563Z,100.00
2023-03-08T16:39:26.381Z,100.00
2023-03-08T16:44:30.844Z,100.00
2023-03-08T16:49:33.479Z,100.00
2023-03-08T16:54:36.344Z,100.00
2023-03-08T16:59:41.201Z,100.00
2023-03-08T17:04:44.555Z,100.00
2023-03-08T17:09:47.403Z,100.00
2023-03-08T17:14:50.346Z,100.00
2023-03-08T17:19:54.375Z,100.00
2023-03-08T17:24:57.110Z,100.00
2023-03-08T17:30:01.200Z,100.00
2023-03-08T17:35:04.233Z,100.00
2023-03-08T17:40:08.129Z,100.00
2023-03-08T17:45:11.629Z,100.00
2023-03-08T17:50:14.545Z,100.00
2023-03-08T17:55:17.795Z,100.00
2023-03-08T18:00:20.712Z,100.00
2023-03-08T18:05:23.396Z,100.00
2023-03-08T18:10:26.259Z,100.00
2023-03-08T18:15:29.130Z,100.00
2023-03-08T18:20:31.783Z,100.00
2023-03-08T18:25:35.008Z,100.00
2023-03-08T18:30:38.637Z,100.00
2023-03-08T18:35:41.397Z,100.00
2023-03-08T18:40:44.209Z,100.00
2023-03-08T18:45:59.499Z,100.00
2023-03-08T18:51:02.251Z,100.00
2023-03-08T18:56:05.173Z,100.00
2023-03-08T19:01:13.848Z,100.00
2023-03-08T19:06:16.674Z,99.95
2023-03-08T19:11:24.901Z,99.66
2023-03-08T19:16:32.934Z,99.53
2023-03-08T19:21:38.618Z,98.93
2023-03-08T19:26:43.443Z,98.54
2023-03-08T19:31:51.857Z,98.97
2023-03-08T19:36:55.106Z,98.88
2023-03-08T19:42:00.339Z,98.55
2023-03-08T19:47:04.890Z,98.96
2023-03-08T19:52:07.969Z,98.41
2023-03-08T19:57:10.924Z,98.26
2023-03-08T20:02:14.105Z,98.35
2023-03-08T20:07:19.687Z,98.08
2023-03-08T20:12:22.450Z,98.13
2023-03-08T20:17:25.153Z,97.27
2023-03-08T20:22:27.803Z,96.80
2023-03-08T20:27:30.579Z,96.01
2023-03-08T20:32:33.224Z,95.56
2023-03-08T20:37:35.865Z,95.34
2023-03-08T20:42:38.573Z,95.61
2023-03-08T20:47:41.294Z,94.54
2023-03-08T20:52:43.924Z,94.73
2023-03-08T20:57:46.587Z,94.68
2023-03-08T21:02:49.341Z,93.91
2023-03-08T21:07:52.035Z,92.96
2023-03-08T21:12:54.750Z,93.38
2023-03-08T21:17:57.432Z,93.67
2023-03-08T21:23:00.017Z,93.67
2023-03-08T21:28:02.693Z,92.88
2023-03-08T21:33:05.416Z,92.66
2023-03-08T21:38:08.629Z,92.32
2023-03-08T21:43:11.364Z,91.99
2023-03-08T21:48:14.047Z,91.34
2023-03-08T21:53:16.786Z,91.27
2023-03-08T21:58:19.709Z,91.27
2023-03-08T22:03:22.388Z,91.02
2023-03-08T22:08:25.563Z,91.68
2023-03-08T22:13:28.216Z,91.84
2023-03-08T22:18:32.084Z,91.67
2023-03-08T22:23:34.793Z,91.63
2023-03-08T22:28:38.362Z,91.19
2023-03-08T22:33:42.378Z,90.54
2023-03-08T22:38:45.110Z,90.46
2023-03-08T22:43:48.528Z,90.69
2023-03-08T22:48:52.939Z,90.50
2023-03-08T22:53:56.478Z,89.79
2023-03-08T22:58:59.982Z,89.76
2023-03-08T23:04:04.109Z,89.29
2023-03-08T23:09:08.457Z,89.48
2023-03-08T23:14:11.724Z,88.77
2023-03-08T23:19:17.156Z,88.46
2023-03-08T23:24:20.582Z,88.77
2023-03-08T23:29:23.256Z,88.75
2023-03-08T23:34:26.033Z,88.66
2023-03-08T23:39:28.648Z,88.19
2023-03-08T23:44:31.300Z,87.77
2023-03-08T23:49:34.300Z,87.88
2023-03-08T23:54:37.012Z,87.90
2023-03-08T23:59:39.687Z,88.00
